Time;durP1;ratioP1;P1;durP2;ratioP2;P2;SDS_P1;SDS_P2;PMS_P1;PMS_P2;Temp;Humidity;BMP_temperature;BMP_pressure;BME280_temperature;BME280_humidity;BME280_pressure;Samples;Min_cycle;Max_cycle;Signal;HPM_P1;HPM_P2
2023/10/25 00:01:15;;;;;;;6.03;4.90;;;8.30;99.90;;;;;;5122216;28;20221;-78
2023/10/25 00:03:42;;;;;;;10.03;5.40;;;8.20;99.90;;;;;;5122192;28;20311;-78
2023/10/25 00:06:09;;;;;;;11.63;5.40;;;8.40;99.90;;;;;;5114090;28;20205;-78
2023/10/25 00:08:36;;;;;;;8.53;5.47;;;8.40;99.90;;;;;;5122265;28;20232;-80
2023/10/25 00:11:05;;;;;;;7.07;5.03;;;8.50;99.90;;;;;;5122915;28;20241;-78
2023/10/25 00:13:33;;;;;;;7.67;5.60;;;8.40;99.90;;;;;;5133610;27;20219;-79
2023/10/25 00:16:00;;;;;;;8.23;5.53;;;8.70;99.90;;;;;;5120712;27;20264;-79
2023/10/25 00:18:27;;;;;;;7.70;4.90;;;8.60;99.90;;;;;;5116544;28;20233;-79
2023/10/25 00:20:54;;;;;;;8.20;5.03;;;8.60;99.90;;;;;;5110739;28;20229;-79
2023/10/25 00:23:22;;;;;;;8.00;5.10;;;8.60;99.90;;;;;;5118552;28;20608;-78
2023/10/25 00:25:49;;;;;;;6.83;4.73;;;8.70;99.90;;;;;;5121998;27;20213;-78
2023/10/25 00:28:16;;;;;;;7.20;4.67;;;8.70;99.90;;;;;;5113571;28;20684;-78
2023/10/25 00:30:44;;;;;;;7.27;4.70;;;8.80;99.90;;;;;;5118325;28;20236;-79
2023/10/25 00:33:11;;;;;;;9.00;5.30;;;8.80;99.90;;;;;;5120866;28;20628;-79
2023/10/25 00:35:38;;;;;;;6.77;4.37;;;8.90;99.90;;;;;;5120535;27;20211;-80
2023/10/25 00:38:05;;;;;;;8.10;4.57;;;8.80;99.90;;;;;;5116035;28;20205;-79
2023/10/25 00:40:32;;;;;;;9.73;5.07;;;8.80;99.90;;;;;;5121215;27;20213;-78
2023/10/25 00:43:14;;;;;;;6.33;4.27;;;8.80;99.90;;;;;;5119959;27;20688;-78
2023/10/25 00:45:49;;;;;;;8.13;4.03;;;8.80;99.90;;;;;;5100400;28;20738;-78
2023/10/25 00:48:16;;;;;;;5.83;3.97;;;8.90;99.90;;;;;;5113317;28;20200;-79
2023/10/25 00:50:43;;;;;;;6.17;4.17;;;8.70;99.90;;;;;;5113201;28;20239;-79
2023/10/25 00:53:10;;;;;;;6.07;4.60;;;8.90;99.90;;;;;;5121364;28;20575;-78
2023/10/25 00:55:37;;;;;;;8.13;3.87;;;8.90;99.90;;;;;;5116968;28;20207;-79
2023/10/25 00:58:04;;;;;;;8.10;4.37;;;8.90;99.90;;;;;;5122141;28;20288;-79
2023/10/25 01:00:31;;;;;;;7.27;4.00;;;9.00;99.90;;;;;;5123630;27;20256;-78
2023/10/25 01:03:04;;;;;;;5.77;3.80;;;9.20;99.90;;;;;;5112766;28;20243;-78
2023/10/25 01:05:31;;;;;;;5.83;3.83;;;8.90;99.90;;;;;;5122179;28;20257;-79
2023/10/25 01:07:58;;;;;;;6.27;3.90;;;9.20;99.90;;;;;;5123491;27;20213;-78
2023/10/25 01:10:25;;;;;;;4.27;3.63;;;9.20;99.90;;;;;;5121819;28;20200;-80
2023/10/25 01:12:52;;;;;;;5.37;3.60;;;9.30;99.90;;;;;;5120592;28;20201;-80
2023/10/25 01:15:21;;;;;;;6.77;3.97;;;9.10;99.90;;;;;;5120691;28;20232;-79
2023/10/25 01:17:48;;;;;;;6.03;3.50;;;9.20;99.90;;;;;;5112070;28;20209;-78
2023/10/25 01:20:18;;;;;;;5.40;3.50;;;9.10;99.90;;;;;;5112928;28;20205;-80
2023/10/25 01:22:47;;;;;;;6.47;3.90;;;9.00;99.90;;;;;;5120225;28;20246;-78
2023/10/25 01:25:14;;;;;;;6.00;3.63;;;9.10;99.90;;;;;;5108494;28;20235;-78
2023/10/25 01:27:41;;;;;;;5.17;3.80;;;9.10;99.90;;;;;;5115459;28;20197;-80
2023/10/25 01:30:09;;;;;;;5.33;3.90;;;9.10;99.90;;;;;;5120495;28;20190;-79
2023/10/25 01:32:36;;;;;;;6.20;4.10;;;9.10;99.90;;;;;;5119514;28;20208;-78
2023/10/25 01:35:03;;;;;;;10.27;4.00;;;9.30;99.90;;;;;;5121652;28;20300;-78
2023/10/25 01:37:29;;;;;;;6.77;4.60;;;9.30;99.90;;;;;;5123363;28;20239;-80
2023/10/25 01:39:58;;;;;;;7.13;4.60;;;9.30;99.90;;;;;;5129590;27;20207;-79
2023/10/25 01:42:24;;;;;;;7.90;4.37;;;9.30;1.00;;;;;;5120886;28;20225;-80
2023/10/25 01:44:51;;;;;;;4.93;4.03;;;9.50;1.00;;;;;;5121429;28;20225;-78
2023/10/25 01:47:18;;;;;;;5.73;4.00;;;9.60;1.00;;;;;;5114503;28;20284;-78
2023/10/25 01:49:45;;;;;;;5.70;4.37;;;9.60;1.00;;;;;;5107489;28;20692;-78
2023/10/25 01:52:12;;;;;;;6.43;3.70;;;9.60;99.90;;;;;;5111860;28;20255;-78
2023/10/25 01:54:39;;;;;;;5.47;4.00;;;9.60;99.90;;;;;;5120638;28;20219;-78
2023/10/25 01:57:07;;;;;;;10.63;5.13;;;9.50;1.00;;;;;;5121923;28;20205;-80
2023/10/25 01:59:34;;;;;;;5.50;4.00;;;9.60;99.90;;;;;;5121886;28;20200;-79
2023/10/25 02:02:01;;;;;;;5.30;4.00;;;9.80;1.00;;;;;;5111430;28;20324;-78
2023/10/25 02:04:28;;;;;;;6.00;4.47;;;9.70;1.00;;;;;;5115128;28;20242;-78
2023/10/25 02:06:55;;;;;;;5.90;4.10;;;9.70;1.00;;;;;;5121485;28;20201;-81
2023/10/25 02:09:22;;;;;;;6.87;3.90;;;9.60;1.00;;;;;;5105581;28;20213;-80
2023/10/25 02:11:49;;;;;;;8.43;4.40;;;9.70;1.00;;;;;;5120992;27;20288;-80
2023/10/25 02:14:17;;;;;;;7.53;4.50;;;9.60;1.00;;;;;;5107490;28;20193;-80
2023/10/25 02:16:44;;;;;;;9.17;4.50;;;9.70;1.00;;;;;;5121606;28;20277;-80
2023/10/25 02:19:11;;;;;;;5.97;4.30;;;9.60;1.00;;;;;;5102602;28;20605;-78
2023/10/25 02:21:37;;;;;;;7.53;4.57;;;9.60;1.00;;;;;;5116054;28;20244;-79
2023/10/25 02:24:07;;;;;;;8.50;4.73;;;9.60;1.00;;;;;;5121352;28;20212;-80
2023/10/25 02:26:34;;;;;;;6.37;3.93;;;9.70;99.90;;;;;;5120698;28;20201;-78
2023/10/25 02:29:01;;;;;;;5.83;3.80;;;9.60;99.90;;;;;;5116971;28;20201;-78
2023/10/25 02:31:29;;;;;;;5.83;3.70;;;9.50;99.90;;;;;;5128744;27;20607;-79
2023/10/25 02:33:56;;;;;;;7.77;4.30;;;9.60;99.90;;;;;;5139753;27;20605;-79
2023/10/25 02:36:22;;;;;;;7.67;4.13;;;9.50;1.00;;;;;;5121635;28;20529;-79
2023/10/25 02:38:49;;;;;;;5.83;4.43;;;9.50;1.00;;;;;;5115730;27;20269;-79
2023/10/25 02:41:16;;;;;;;8.47;4.33;;;9.50;1.00;;;;;;5112192;28;20222;-83
2023/10/25 02:43:44;;;;;;;6.70;4.33;;;9.50;1.00;;;;;;5102274;28;20254;-79
2023/10/25 02:46:12;;;;;;;5.77;4.13;;;9.50;1.00;;;;;;5100867;28;20210;-80
2023/10/25 02:48:40;;;;;;;8.63;4.83;;;9.50;1.00;;;;;;5109569;28;20283;-80
2023/10/25 02:51:07;;;;;;;8.00;4.47;;;9.50;1.00;;;;;;5119706;28;20708;-80
2023/10/25 02:53:34;;;;;;;7.07;4.53;;;9.30;1.00;;;;;;5121974;28;20212;-79
2023/10/25 02:56:02;;;;;;;6.90;4.03;;;9.40;1.00;;;;;;5119974;28;20205;-79
2023/10/25 02:58:29;;;;;;;8.57;5.03;;;9.40;1.00;;;;;;5137027;28;20651;-81
2023/10/25 03:00:57;;;;;;;5.23;4.23;;;9.40;10.00;;;;;;5122002;27;20231;-80
2023/10/25 03:03:24;;;;;;;5.30;3.87;;;9.40;19.80;;;;;;5118844;28;20197;-79
2023/10/25 03:05:52;;;;;;;7.30;4.37;;;9.50;99.90;;;;;;5117147;28;20217;-79
2023/10/25 03:08:18;;;;;;;6.83;4.20;;;9.40;99.90;;;;;;5118922;28;20197;-78
2023/10/25 03:10:45;;;;;;;7.33;4.30;;;9.40;99.90;;;;;;5122819;28;20221;-79
2023/10/25 03:13:12;;;;;;;7.23;4.30;;;9.30;99.90;;;;;;5113696;28;20731;-79
2023/10/25 03:15:39;;;;;;;5.20;4.00;;;9.30;1.00;;;;;;5123431;28;20294;-79
2023/10/25 03:18:06;;;;;;;7.37;4.07;;;9.20;1.00;;;;;;5124519;28;20205;-84
2023/10/25 03:20:33;;;;;;;11.87;8.17;;;9.20;1.00;;;;;;5118209;27;20231;-79
2023/10/25 03:23:01;;;;;;;20.33;15.17;;;9.10;1.00;;;;;;5122145;28;20679;-80
2023/10/25 03:25:28;;;;;;;12.43;6.83;;;9.20;85.80;;;;;;5124018;28;20311;-80
2023/10/25 03:27:55;;;;;;;7.03;4.13;;;9.20;99.90;;;;;;5124158;28;20204;-78
2023/10/25 03:30:22;;;;;;;6.67;3.83;;;9.10;99.90;;;;;;5111230;28;20219;-79
2023/10/25 03:32:49;;;;;;;5.40;4.00;;;9.00;99.90;;;;;;5104508;28;20292;-79
2023/10/25 03:35:16;;;;;;;5.70;4.30;;;9.00;99.90;;;;;;5114991;28;20201;-80
2023/10/25 03:37:43;;;;;;;7.47;4.60;;;9.00;99.90;;;;;;5123501;28;20220;-81
2023/10/25 03:40:12;;;;;;;7.00;4.33;;;8.90;99.90;;;;;;5123348;28;20204;-81
2023/10/25 03:42:39;;;;;;;7.20;4.93;;;9.00;99.90;;;;;;5124408;28;20196;-81
2023/10/25 03:45:07;;;;;;;7.13;4.30;;;9.10;99.90;;;;;;5123264;28;20295;-80
2023/10/25 03:47:37;;;;;;;9.70;4.83;;;9.10;99.90;;;;;;5123957;28;20230;-79
2023/10/25 03:50:04;;;;;;;11.00;5.17;;;9.00;99.90;;;;;;5122191;28;20235;-79
2023/10/25 03:52:31;;;;;;;8.90;4.67;;;9.00;99.90;;;;;;5103604;28;20312;-80
2023/10/25 03:54:58;;;;;;;7.17;4.93;;;9.00;99.90;;;;;;5104412;28;20199;-79
2023/10/25 03:57:26;;;;;;;7.73;5.00;;;9.00;99.90;;;;;;5124411;28;20199;-80
2023/10/25 03:59:53;;;;;;;7.00;4.70;;;9.00;99.90;;;;;;5124100;28;20197;-80
2023/10/25 04:02:20;;;;;;;6.17;4.40;;;9.00;99.90;;;;;;5124425;28;20220;-81
2023/10/25 04:04:47;;;;;;;7.23;4.97;;;8.90;99.90;;;;;;5124383;28;20672;-80
2023/10/25 04:07:14;;;;;;;7.27;4.50;;;8.90;99.90;;;;;;5125544;28;20212;-81
2023/10/25 04:09:41;;;;;;;6.27;4.90;;;9.10;99.90;;;;;;5125712;28;20268;-79
2023/10/25 04:12:12;;;;;;;8.20;4.50;;;9.00;99.90;;;;;;5120912;28;20223;-80
2023/10/25 04:14:44;;;;;;;7.60;4.40;;;8.90;99.90;;;;;;5124231;28;20220;-81
2023/10/25 04:17:10;;;;;;;6.93;4.43;;;9.00;99.90;;;;;;5125925;28;20710;-81
2023/10/25 04:19:37;;;;;;;5.83;4.17;;;8.90;99.90;;;;;;5125954;28;20201;-80
2023/10/25 04:22:05;;;;;;;5.33;4.03;;;9.00;99.90;;;;;;5125722;28;20289;-81
2023/10/25 04:24:31;;;;;;;8.07;4.20;;;8.90;99.90;;;;;;5125570;28;20278;-79
2023/10/25 04:27:00;;;;;;;6.90;4.00;;;8.80;99.90;;;;;;5125012;28;20287;-81
2023/10/25 04:29:27;;;;;;;5.10;3.60;;;9.10;99.90;;;;;;5119873;28;20649;-81
2023/10/25 04:31:55;;;;;;;6.20;3.50;;;8.90;99.90;;;;;;5115949;28;20213;-79
2023/10/25 04:34:22;;;;;;;4.03;3.33;;;9.00;99.90;;;;;;5126609;28;20208;-79
2023/10/25 04:36:48;;;;;;;6.73;3.53;;;9.00;99.90;;;;;;5125379;28;20229;-79
2023/10/25 04:39:15;;;;;;;8.17;3.10;;;9.10;99.90;;;;;;5125244;28;20686;-80
2023/10/25 04:41:42;;;;;;;5.03;3.10;;;8.90;99.90;;;;;;5125568;27;20260;-80
2023/10/25 04:44:09;;;;;;;4.17;2.90;;;8.90;99.90;;;;;;5125339;28;20196;-81
2023/10/25 04:46:36;;;;;;;6.10;3.00;;;8.90;99.90;;;;;;5122829;28;20219;-81
2023/10/25 04:49:04;;;;;;;4.90;2.90;;;8.90;99.90;;;;;;5124567;28;20284;-79
2023/10/25 04:51:31;;;;;;;3.27;2.87;;;8.90;32.20;;;;;;5112441;28;20238;-80
2023/10/25 04:53:58;;;;;;;6.50;3.03;;;8.90;89.30;;;;;;5124478;28;20207;-81
2023/10/25 04:56:25;;;;;;;7.03;3.10;;;9.00;1.00;;;;;;5125656;28;20207;-80
2023/10/25 04:58:52;;;;;;;5.83;2.97;;;9.00;1.00;;;;;;5125153;27;20193;-81
2023/10/25 05:01:19;;;;;;;3.60;2.60;;;9.20;1.00;;;;;;5117708;28;20308;-81
2023/10/25 05:03:46;;;;;;;3.60;3.20;;;9.10;1.00;;;;;;5123156;28;20203;-81
2023/10/25 05:06:15;;;;;;;5.73;3.20;;;9.00;1.00;;;;;;5116430;28;20239;-81
2023/10/25 05:08:42;;;;;;;6.00;2.83;;;8.90;1.00;;;;;;5124568;28;20208;-80
2023/10/25 05:11:13;;;;;;;4.70;3.10;;;8.90;1.00;;;;;;5124227;28;20576;-80
2023/10/25 05:13:40;;;;;;;4.87;3.00;;;8.90;1.00;;;;;;5108756;28;20201;-80
2023/10/25 05:16:08;;;;;;;5.60;4.07;;;8.80;1.00;;;;;;5106448;28;20257;-80
2023/10/25 05:18:36;;;;;;;4.80;3.50;;;8.60;1.00;;;;;;5124486;28;20236;-80
2023/10/25 05:21:04;;;;;;;5.30;3.90;;;8.70;99.90;;;;;;5123822;28;20664;-79
2023/10/25 05:23:34;;;;;;;4.40;3.20;;;8.70;99.90;;;;;;5124736;28;20211;-80
2023/10/25 05:26:02;;;;;;;7.47;3.60;;;8.50;99.90;;;;;;5124612;28;20228;-80
2023/10/25 05:28:30;;;;;;;8.67;3.63;;;8.40;99.90;;;;;;5124000;27;20303;-81
2023/10/25 05:31:01;;;;;;;6.87;4.07;;;8.30;99.90;;;;;;5122037;28;20235;-81
2023/10/25 05:33:30;;;;;;;4.77;3.80;;;8.20;99.90;;;;;;5124331;28;20189;-80
2023/10/25 05:35:57;;;;;;;6.07;4.10;;;8.10;99.90;;;;;;5123265;28;20660;-81
2023/10/25 05:38:25;;;;;;;7.37;4.13;;;8.10;99.90;;;;;;5110372;28;20220;-80
2023/10/25 05:40:54;;;;;;;6.47;3.70;;;8.10;99.90;;;;;;5102790;28;20217;-80
2023/10/25 05:43:27;;;;;;;7.30;4.23;;;8.00;99.90;;;;;;5104365;28;20201;-80
2023/10/25 05:45:54;;;;;;;6.87;4.03;;;8.00;99.90;;;;;;5122049;28;20315;-81
2023/10/25 05:48:22;;;;;;;7.40;4.40;;;7.90;99.90;;;;;;5124151;28;20278;-80
2023/10/25 05:50:51;;;;;;;6.57;4.57;;;7.90;99.90;;;;;;5122961;28;20264;-80
2023/10/25 05:53:19;;;;;;;5.43;4.17;;;7.90;99.90;;;;;;5106168;28;20715;-80
2023/10/25 05:55:47;;;;;;;7.27;4.53;;;7.80;99.90;;;;;;5123957;28;20203;-80
2023/10/25 05:58:18;;;;;;;7.23;4.37;;;7.70;99.90;;;;;;5124767;28;20197;-81
2023/10/25 06:00:49;;;;;;;4.60;4.10;;;7.80;99.90;;;;;;5124449;28;20240;-79
2023/10/25 06:03:20;;;;;;;7.00;4.30;;;7.80;99.90;;;;;;5123795;28;20193;-80
2023/10/25 06:05:52;;;;;;;4.47;4.03;;;7.60;99.90;;;;;;5124282;28;20224;-81
2023/10/25 06:08:20;;;;;;;6.43;4.57;;;7.60;99.90;;;;;;5123075;27;20272;-81
2023/10/25 06:10:48;;;;;;;7.00;4.53;;;7.60;99.90;;;;;;5122656;28;20260;-81
2023/10/25 06:13:17;;;;;;;7.80;4.57;;;7.60;99.90;;;;;;5122934;28;20209;-80
2023/10/25 06:15:45;;;;;;;9.70;5.23;;;7.50;99.90;;;;;;5121115;28;20637;-79
2023/10/25 06:18:12;;;;;;;7.73;5.03;;;7.50;99.90;;;;;;5108806;28;20259;-78
2023/10/25 06:20:39;;;;;;;8.73;5.20;;;7.50;99.90;;;;;;5115103;28;20220;-80
2023/10/25 06:23:05;;;;;;;7.50;5.43;;;7.50;99.90;;;;;;5120275;28;20200;-81
2023/10/25 06:25:32;;;;;;;6.80;6.00;;;7.40;99.90;;;;;;5116174;28;20221;-79
2023/10/25 06:28:00;;;;;;;9.43;5.80;;;7.50;99.90;;;;;;5119867;28;20268;-79
2023/10/25 06:30:28;;;;;;;9.60;6.53;;;7.50;99.90;;;;;;5122540;28;20205;-79
2023/10/25 06:32:57;;;;;;;12.90;6.50;;;7.50;99.90;;;;;;5113337;28;20296;-80
2023/10/25 06:35:24;;;;;;;11.93;6.57;;;7.50;99.90;;;;;;5104775;28;20715;-80
2023/10/25 06:37:51;;;;;;;10.83;6.43;;;7.50;99.90;;;;;;5115487;28;20279;-80
2023/10/25 06:40:19;;;;;;;11.67;7.10;;;7.40;99.90;;;;;;5114048;28;20680;-79
2023/10/25 06:42:46;;;;;;;10.43;6.00;;;7.40;99.90;;;;;;5121578;28;20281;-81
2023/10/25 06:45:14;;;;;;;10.03;6.23;;;7.40;99.90;;;;;;5122477;28;20219;-80
2023/10/25 06:47:44;;;;;;;9.73;6.10;;;7.30;99.90;;;;;;5122939;28;20211;-78
2023/10/25 06:50:12;;;;;;;12.80;6.90;;;7.40;99.90;;;;;;5126654;28;20213;-81
2023/10/25 06:52:40;;;;;;;13.57;7.10;;;7.60;99.90;;;;;;5125787;28;20205;-79
2023/10/25 06:55:08;;;;;;;12.43;7.17;;;7.70;99.90;;;;;;5125734;27;20207;-80
2023/10/25 06:57:35;;;;;;;12.60;6.47;;;7.60;99.90;;;;;;5126320;28;20236;-81
2023/10/25 07:00:06;;;;;;;10.67;6.90;;;7.60;99.90;;;;;;5126317;28;20197;-80
2023/10/25 07:02:39;;;;;;;9.90;6.10;;;7.60;99.90;;;;;;5124523;28;20228;-81
2023/10/25 07:05:11;;;;;;;9.83;6.27;;;7.70;99.90;;;;;;5124917;28;20238;-79
2023/10/25 07:07:39;;;;;;;10.93;7.03;;;7.70;99.90;;;;;;5126141;28;20201;-80
2023/10/25 07:10:08;;;;;;;9.90;6.23;;;7.70;99.90;;;;;;5126018;28;20570;-81
2023/10/25 07:12:35;;;;;;;15.60;7.57;;;7.80;99.90;;;;;;5125438;28;20242;-79
2023/10/25 07:15:02;;;;;;;13.47;7.00;;;7.90;99.90;;;;;;5125940;28;20197;-80
2023/10/25 07:17:29;;;;;;;10.00;7.00;;;8.00;99.90;;;;;;5125011;28;20201;-81
2023/10/25 07:19:58;;;;;;;9.37;6.50;;;8.00;99.90;;;;;;5123995;28;20201;-79
2023/10/25 07:22:26;;;;;;;12.77;7.30;;;8.10;99.90;;;;;;5125514;28;20236;-80
2023/10/25 07:24:53;;;;;;;10.50;6.67;;;8.10;99.90;;;;;;5125113;28;20211;-79
2023/10/25 07:27:20;;;;;;;11.30;7.37;;;8.20;99.90;;;;;;5109460;28;20216;-80
2023/10/25 07:29:46;;;;;;;10.13;7.17;;;10.30;99.90;;;;;;5126678;28;20291;-80
2023/10/25 07:32:13;;;;;;;10.80;5.73;;;11.00;1.00;;;;;;5126547;28;20320;-81
2023/10/25 07:34:40;;;;;;;8.57;5.90;;;10.80;99.90;;;;;;5126091;28;20201;-80
2023/10/25 07:37:07;;;;;;;8.80;5.33;;;10.60;1.00;;;;;;5125197;28;20197;-81
2023/10/25 07:39:36;;;;;;;10.30;6.20;;;10.60;99.90;;;;;;5125078;28;20690;-81
2023/10/25 07:42:03;;;;;;;8.50;5.83;;;10.60;99.90;;;;;;5124913;27;20217;-80
2023/10/25 07:44:29;;;;;;;7.80;5.07;;;10.70;55.20;;;;;;5125171;28;20291;-79
2023/10/25 07:46:57;;;;;;;9.13;5.80;;;10.50;1.00;;;;;;5125007;28;20585;-79
2023/10/25 07:49:24;;;;;;;7.70;5.10;;;10.20;40.00;;;;;;5112304;28;20199;-80
2023/10/25 07:51:52;;;;;;;8.50;4.87;;;10.00;99.90;;;;;;5119905;28;20225;-80
2023/10/25 07:54:19;;;;;;;8.10;4.93;;;9.80;1.00;;;;;;5120412;28;20268;-81
2023/10/25 07:56:47;;;;;;;7.30;5.17;;;9.60;1.00;;;;;;5121022;28;20204;-80
2023/10/25 07:59:14;;;;;;;10.07;5.90;;;9.60;1.00;;;;;;5119968;28;20201;-80
2023/10/25 08:01:41;;;;;;;9.37;5.60;;;9.60;99.90;;;;;;5117461;28;20220;-80
2023/10/25 08:04:08;;;;;;;9.50;5.10;;;9.70;1.00;;;;;;5120273;28;20660;-81
2023/10/25 08:06:35;;;;;;;8.13;5.20;;;9.80;1.00;;;;;;5120151;28;20232;-79
2023/10/25 08:09:02;;;;;;;7.60;5.33;;;10.10;99.90;;;;;;5119625;27;20447;-80
2023/10/25 08:11:34;;;;;;;11.97;5.37;;;9.90;99.90;;;;;;5119195;28;20221;-80
2023/10/25 08:14:02;;;;;;;8.03;5.23;;;10.00;99.90;;;;;;5120187;28;20204;-79
2023/10/25 08:16:29;;;;;;;7.23;5.67;;;10.10;1.00;;;;;;5120259;28;20208;-78
2023/10/25 08:18:55;;;;;;;8.77;5.70;;;10.10;1.00;;;;;;5120254;27;20208;-80
2023/10/25 08:21:22;;;;;;;9.90;5.83;;;10.10;1.00;;;;;;5118411;28;20231;-79
2023/10/25 08:23:51;;;;;;;10.57;6.00;;;10.70;1.00;;;;;;5119823;28;20203;-79
2023/10/25 08:26:18;;;;;;;9.37;4.97;;;10.90;99.90;;;;;;5106921;28;20224;-80
2023/10/25 08:28:45;;;;;;;7.73;4.97;;;10.60;1.00;;;;;;5104534;28;20202;-79
2023/10/25 08:31:14;;;;;;;7.47;5.63;;;10.50;1.00;;;;;;5115225;28;20316;-79
2023/10/25 08:33:41;;;;;;;8.90;4.93;;;10.40;99.90;;;;;;5119453;28;20212;-79
2023/10/25 08:36:09;;;;;;;8.37;5.23;;;10.40;1.00;;;;;;5120418;28;20221;-79
2023/10/25 08:38:36;;;;;;;7.30;4.90;;;10.40;32.80;;;;;;5118171;28;20363;-80
2023/10/25 08:41:03;;;;;;;7.87;5.20;;;10.40;99.90;;;;;;5118623;28;20243;-81
2023/10/25 08:43:30;;;;;;;10.30;6.10;;;10.40;99.90;;;;;;5117965;28;20209;-80
2023/10/25 08:45:58;;;;;;;6.77;5.07;;;10.50;1.00;;;;;;5117947;28;20700;-79
2023/10/25 08:48:27;;;;;;;6.50;4.77;;;10.50;99.90;;;;;;5105561;28;20207;-78
2023/10/25 08:50:55;;;;;;;6.83;4.70;;;10.50;99.90;;;;;;5114774;28;20239;-79
2023/10/25 08:53:24;;;;;;;7.50;4.70;;;10.60;99.90;;;;;;5108621;28;20200;-80
2023/10/25 08:55:52;;;;;;;10.07;4.70;;;10.50;1.00;;;;;;5116719;28;20204;-81
2023/10/25 08:58:19;;;;;;;10.47;5.67;;;10.70;1.00;;;;;;5116415;28;20547;-82
2023/10/25 09:00:46;;;;;;;6.53;4.77;;;10.90;1.00;;;;;;5113937;28;20231;-81
2023/10/25 09:03:43;;;;;;;10.23;6.23;;;11.00;1.00;;;;;;5113834;28;20209;-81
2023/10/25 09:06:11;;;;;;;10.33;5.17;;;10.90;99.90;;;;;;5112083;28;20227;-82
2023/10/25 09:08:38;;;;;;;8.57;4.80;;;10.90;1.00;;;;;;5114801;27;20581;-81
2023/10/25 09:11:08;;;;;;;7.13;5.00;;;10.90;1.00;;;;;;5113835;28;20527;-81
2023/10/25 09:13:36;;;;;;;6.93;5.00;;;10.90;1.00;;;;;;5112997;28;20299;-81
2023/10/25 09:16:05;;;;;;;6.10;4.60;;;11.00;1.00;;;;;;5114050;28;20721;-81
2023/10/25 09:18:33;;;;;;;6.90;4.70;;;11.10;1.00;;;;;;5114329;27;20197;-81
2023/10/25 09:21:01;;;;;;;11.77;5.20;;;10.90;99.90;;;;;;5113881;28;20592;-81
2023/10/25 09:23:29;;;;;;;7.00;4.40;;;11.00;99.90;;;;;;5113719;28;20201;-81
2023/10/25 09:25:56;;;;;;;6.77;4.70;;;11.20;1.00;;;;;;5106603;28;20584;-81
2023/10/25 09:28:30;;;;;;;8.27;5.50;;;11.20;99.90;;;;;;5113704;28;20207;-81
2023/10/25 09:30:58;;;;;;;7.90;4.70;;;11.20;99.90;;;;;;5113494;28;20278;-81
2023/10/25 09:33:26;;;;;;;7.73;4.83;;;11.10;99.90;;;;;;5108781;28;20227;-81
2023/10/25 09:35:53;;;;;;;6.97;4.63;;;11.10;99.90;;;;;;5113991;28;20207;-81
2023/10/25 09:38:21;;;;;;;7.63;5.00;;;11.00;99.90;;;;;;5105278;28;20682;-82
2023/10/25 09:40:50;;;;;;;8.07;4.53;;;11.00;52.30;;;;;;5110797;28;20413;-82
2023/10/25 09:43:19;;;;;;;6.53;4.60;;;11.10;99.90;;;;;;5113590;28;20599;-81
2023/10/25 09:45:51;;;;;;;8.50;4.87;;;11.20;99.90;;;;;;5114014;28;20660;-81
2023/10/25 09:48:20;;;;;;;6.37;4.83;;;11.40;99.90;;;;;;5112216;28;20243;-81
2023/10/25 09:51:03;;;;;;;6.60;4.20;;;11.60;1.00;;;;;;5112646;28;20233;-82
2023/10/25 09:53:38;;;;;;;6.07;4.53;;;11.90;1.00;;;;;;5106735;28;20213;-81
2023/10/25 09:56:09;;;;;;;6.77;4.47;;;12.30;1.00;;;;;;5114083;28;20211;-81
2023/10/25 09:58:36;;;;;;;7.93;4.67;;;12.20;1.00;;;;;;5113484;28;20740;-81
2023/10/25 10:01:05;;;;;;;6.43;4.53;;;12.60;1.00;;;;;;5113003;28;20223;-81
2023/10/25 10:03:44;;;;;;;6.83;4.37;;;12.90;99.90;;;;;;5113196;28;20200;-81
2023/10/25 10:06:23;;;;;;;5.20;4.27;;;13.00;99.90;;;;;;5112161;28;20635;-81
2023/10/25 10:08:57;;;;;;;6.23;3.53;;;12.90;76.00;;;;;;5113068;28;20197;-81
2023/10/25 10:11:28;;;;;;;5.93;3.60;;;12.90;1.00;;;;;;5112508;28;20238;-81
2023/10/25 10:14:28;;;;;;;6.93;3.60;;;13.10;1.00;;;;;;5114341;28;20205;-81
2023/10/25 10:16:58;;;;;;;7.50;3.67;;;13.00;1.00;;;;;;5111905;28;20205;-82
2023/10/25 10:19:25;;;;;;;7.00;3.70;;;13.50;1.00;;;;;;5110625;28;20761;-81
2023/10/25 10:22:04;;;;;;;5.23;3.43;;;13.50;1.00;;;;;;5110616;28;20303;-80
2023/10/25 10:24:43;;;;;;;5.28;3.15;;;13.70;1.00;;;;;;5115989;28;20664;-80
2023/10/25 10:27:11;;;;;;;4.30;3.40;;;14.00;1.00;;;;;;5116893;28;20726;-81
2023/10/25 10:29:39;;;;;;;6.95;3.95;;;13.60;1.00;;;;;;5116986;28;20277;-81
2023/10/25 10:32:07;;;;;;;5.70;3.83;;;13.30;1.00;;;;;;5116545;28;20596;-80
2023/10/25 10:34:48;;;;;;;6.63;4.40;;;13.20;1.00;;;;;;5122685;28;20380;-79
2023/10/25 10:37:17;;;;;;;6.10;4.10;;;13.10;1.00;;;;;;5123218;28;20201;-79
2023/10/25 10:40:13;;;;;;;6.40;3.80;;;13.20;1.00;;;;;;5127738;28;20216;-78
2023/10/25 10:42:40;;;;;;;4.47;3.80;;;13.10;1.00;;;;;;5122476;28;20201;-80
2023/10/25 10:45:10;;;;;;;6.93;3.90;;;13.00;1.00;;;;;;5123084;28;20233;-80
2023/10/25 10:47:41;;;;;;;4.67;3.60;;;12.90;1.00;;;;;;5124711;28;20320;-79
2023/10/25 10:50:10;;;;;;;5.03;3.58;;;13.20;1.00;;;;;;5124870;28;20251;-80
2023/10/25 10:52:37;;;;;;;6.40;3.27;;;13.70;1.00;;;;;;5124389;28;20213;-80
2023/10/25 10:55:05;;;;;;;5.20;2.85;;;14.20;1.00;;;;;;5124291;28;20209;-79
2023/10/25 10:57:33;;;;;;;6.30;2.88;;;13.90;1.00;;;;;;5121343;28;20675;-79
2023/10/25 11:00:01;;;;;;;8.27;3.20;;;13.80;1.00;;;;;;5123667;28;20282;-79
2023/10/25 11:02:28;;;;;;;5.30;2.75;;;13.70;1.00;;;;;;5123682;28;20229;-79
2023/10/25 11:04:55;;;;;;;4.15;2.90;;;13.80;1.00;;;;;;5118075;27;20247;-79
2023/10/25 11:07:22;;;;;;;2.67;2.47;;;13.80;1.00;;;;;;5114384;28;20222;-79
2023/10/25 11:09:48;;;;;;;4.50;2.33;;;14.40;1.00;;;;;;5119351;28;20625;-78
2023/10/25 11:12:15;;;;;;;7.57;3.92;;;14.80;1.00;;;;;;5123916;28;20227;-79
2023/10/25 11:14:45;;;;;;;4.45;1.80;;;14.60;99.90;;;;;;5122325;28;20577;-79
2023/10/25 11:17:12;;;;;;;2.50;2.10;;;14.60;99.90;;;;;;5121374;28;20199;-81
2023/10/25 11:19:40;;;;;;;4.13;2.08;;;14.80;99.90;;;;;;5120251;28;20200;-78
2023/10/25 11:22:07;;;;;;;4.20;2.60;;;14.90;99.90;;;;;;5120531;28;20233;-78
2023/10/25 11:24:35;;;;;;;6.13;3.00;;;15.10;99.90;;;;;;5122388;27;20317;-79
2023/10/25 11:27:02;;;;;;;4.43;2.58;;;15.40;99.90;;;;;;5122368;27;20217;-79
2023/10/25 11:29:31;;;;;;;2.65;2.45;;;15.60;99.90;;;;;;5131288;27;20193;-79
2023/10/25 11:32:04;;;;;;;5.65;2.45;;;15.30;99.90;;;;;;5135956;27;20307;-79
2023/10/25 11:34:32;;;;;;;3.45;2.55;;;15.10;99.90;;;;;;5134876;27;20643;-78
2023/10/25 11:37:00;;;;;;;5.05;2.53;;;14.50;99.90;;;;;;5136174;27;20614;-79
2023/10/25 11:39:28;;;;;;;4.28;2.90;;;14.00;99.90;;;;;;5122624;28;20695;-79
2023/10/25 11:41:55;;;;;;;2.58;2.30;;;13.90;99.90;;;;;;5120344;28;20232;-79
2023/10/25 11:44:23;;;;;;;10.02;6.32;;;13.90;99.90;;;;;;5115572;28;20201;-78
2023/10/25 11:46:51;;;;;;;3.60;2.40;;;14.10;99.90;;;;;;5117729;28;20252;-78
2023/10/25 11:49:20;;;;;;;8.30;2.40;;;13.90;99.90;;;;;;5128249;27;20231;-78
2023/10/25 11:51:48;;;;;;;5.63;2.40;;;13.70;99.90;;;;;;5132782;27;20234;-79
2023/10/25 11:54:15;;;;;;;3.88;2.38;;;13.50;99.90;;;;;;5122969;27;20258;-78
2023/10/25 11:56:41;;;;;;;3.88;2.60;;;13.50;99.90;;;;;;5113649;28;20305;-78
2023/10/25 11:59:08;;;;;;;3.83;2.35;;;13.70;99.90;;;;;;5118819;28;20236;-78
2023/10/25 12:01:35;;;;;;;6.07;2.20;;;14.00;99.90;;;;;;5124963;27;20266;-78
2023/10/25 12:04:02;;;;;;;3.58;2.25;;;13.70;99.90;;;;;;5130419;27;20202;-77
2023/10/25 12:06:30;;;;;;;3.13;1.90;;;13.70;99.90;;;;;;5121616;28;20200;-78
2023/10/25 12:08:57;;;;;;;4.65;2.30;;;13.70;99.90;;;;;;5116356;28;20217;-80
2023/10/25 12:11:24;;;;;;;2.58;2.05;;;13.60;99.90;;;;;;5102687;28;20248;-79
2023/10/25 12:13:51;;;;;;;2.85;2.25;;;13.80;99.90;;;;;;5108634;28;20211;-79
2023/10/25 12:16:18;;;;;;;4.60;2.55;;;13.80;99.90;;;;;;5117692;28;20211;-81
2023/10/25 12:18:45;;;;;;;3.22;2.25;;;13.70;99.90;;;;;;5110946;28;20233;-80
2023/10/25 12:21:11;;;;;;;4.53;2.20;;;13.70;99.90;;;;;;5113987;28;20227;-79
2023/10/25 12:23:39;;;;;;;4.63;2.13;;;13.50;99.90;;;;;;5116201;28;20212;-80
2023/10/25 12:26:06;;;;;;;3.63;2.33;;;13.40;99.90;;;;;;5114685;28;20709;-79
2023/10/25 12:28:33;;;;;;;2.85;2.00;;;13.60;99.90;;;;;;5117908;28;20217;-80
2023/10/25 12:31:00;;;;;;;4.97;2.28;;;13.70;99.90;;;;;;5108260;28;20309;-79
2023/10/25 12:33:27;;;;;;;4.32;2.78;;;13.80;99.90;;;;;;5105521;28;20667;-79
2023/10/25 12:35:53;;;;;;;5.33;2.50;;;13.70;99.90;;;;;;5113087;28;20201;-80
2023/10/25 12:38:20;;;;;;;4.25;2.40;;;13.80;99.90;;;;;;5117300;28;20688;-79
2023/10/25 12:40:48;;;;;;;2.35;2.15;;;13.60;99.90;;;;;;5110468;27;20719;-79
2023/10/25 12:43:15;;;;;;;3.73;2.07;;;13.70;99.90;;;;;;5108586;28;20200;-79
2023/10/25 12:45:42;;;;;;;5.40;2.45;;;13.80;99.90;;;;;;5117178;27;20203;-80
2023/10/25 12:48:09;;;;;;;3.58;2.40;;;13.80;99.90;;;;;;5118821;28;20213;-79
2023/10/25 12:50:36;;;;;;;4.60;2.20;;;13.80;99.90;;;;;;5109463;28;20233;-80
2023/10/25 12:53:03;;;;;;;6.00;2.47;;;14.10;99.90;;;;;;5108325;28;20192;-79
2023/10/25 12:55:30;;;;;;;3.03;2.50;;;14.20;99.90;;;;;;5119024;28;20196;-80
2023/10/25 12:57:58;;;;;;;3.30;2.08;;;14.40;99.90;;;;;;5110277;28;20193;-80
2023/10/25 13:00:25;;;;;;;3.08;2.10;;;14.30;99.90;;;;;;5117208;27;20729;-80